KPBG/PBG METAR and TAF weather

Enter ICAO airport designator
Station Type Date Time Source
KPBG METAR 2022/12/04 04:53 UTC NOAA

KPBG 040453Z AUTO 30012G18KT 10SM BKN047 OVC055 03/M06 A3003 RMK AO2 SLP172 T00281056 401060028


Station Type Date Time Source
KPBG Decoded METAR 2022/12/04 04:53 UTC NOAA

PLATTSBURGH INTERNATIONAL AIRPORT, NY, United States (KPBG) 44-39N 073-28W
Dec 03, 2022 - 11:53 PM EST / 2022.12.04 0453 UTC
Wind: from the WNW (300 degrees) at 14 MPH (12 KT) gusting to 21 MPH (18 KT):0
Visibility: 10 mile(s):0
Sky conditions: overcast
Temperature: 37.0 F (2.8 C)
Dew Point: 21.9 F (-5.6 C)
Relative Humidity: 53%
Pressure (altimeter): 30.03 in. Hg (1016 hPa)
ob: KPBG 040453Z AUTO 30012G18KT 10SM BKN047 OVC055 03/M06 A3003 RMK AO2 SLP172 T00281056 401060028
cycle: 5

Station Type Date Time Source
KPBG TAF 2022/12/03 18:59 UTC NOAA

TAF COR KPBG 031755Z 0318/0418 18008KT P6SM OVC050
FM032000 22020G30KT P6SM VCSH SCT060
FM040400 28009G19KT P6SM BKN045
FM040900 30007KT P6SM BKN035

Example: see airport list